Tranbjerg, Denmark
Current Conditions -  °F | °C
As of 3:50 PM on Sunday 23 Nov 2014 (Local Time) from EKAH Reporting Station
Overcast Overcast  
Wind Chill: 39°   Ceiling: 800
Heat Index: 45°   Visibility: 4mi
Dew Point: 39°   Wind: 12mph
Humidity: 81%   Direction: 150°SSE
Pressure: 30.06"   Gusts: 23mph
Location:  56.09°N, 10.12°E
Report Text: EKAH 231450Z AUTO 15010G20KT 120V200 7000NDV OVC008///07/04 Q1018
Loading
Personal Weather Stations






























Interactive Weather Map New forecast layout! Learn more

10-Day Weather Forecast

Advertisements
Track Severe Weather on mobile